Terminal Aerodrome Forecast
Issued by NWS

Home | Current Version | Previous Version | Text Only | Print | Product List | Glossary On
Versions: 1 2 3 4 5 6 7 8 9 10 11 12 13 14 15 16 17 18 19 20
329
FTUS41 KBGM 301729
TAFITH
TAF
KITH 301729Z 3018/0118 14008KT P6SM SCT035 BKN050
     FM010100 16012KT P6SM BKN050
     FM010500 17014KT P6SM BKN045 WS020/19040KT
     FM011100 17014KT P6SM BKN025 WS020/20035KT
     FM011400 19012G20KT P6SM BKN040=

USA.gov is the U.S. government's official web portal to all federal, state and local government web resources and services.